Time;durP1;ratioP1;P1;durP2;ratioP2;P2;SDS_P1;SDS_P2;PMS_P1;PMS_P2;Temp;Humidity;BMP_temperature;BMP_pressure;BME280_temperature;BME280_humidity;BME280_pressure;Samples;Min_cycle;Max_cycle;Signal;HPM_P1;HPM_P2
2022/08/15 00:00:23;;;;;;;10.10;9.30;;;;;;;18.04;100.00;98397.69;5026302;28;20232;-82
2022/08/15 00:02:52;;;;;;;9.57;8.83;;;;;;;18.00;100.00;98391.28;5022987;28;20238;-83
2022/08/15 00:05:33;;;;;;;10.00;9.30;;;;;;;17.93;100.00;98392.75;5022526;28;20231;-82
2022/08/15 00:08:06;;;;;;;10.40;9.60;;;;;;;17.89;100.00;98386.31;5026471;28;20702;-83
2022/08/15 00:10:58;;;;;;;10.50;9.50;;;;;;;17.82;100.00;98380.47;5021043;28;21403;-82
2022/08/15 00:13:59;;;;;;;9.97;9.17;;;;;;;17.77;100.00;98394.91;5021594;28;21031;-81
2022/08/15 00:16:36;;;;;;;9.70;8.90;;;;;;;17.75;100.00;98390.88;5044839;28;20234;-82
2022/08/15 00:19:07;;;;;;;9.77;8.97;;;;;;;17.70;100.00;98394.47;5054097;28;20741;-82
2022/08/15 00:21:37;;;;;;;9.83;9.03;;;;;;;17.67;100.00;98394.25;5047652;28;20246;-82
2022/08/15 00:24:08;;;;;;;10.23;9.43;;;;;;;17.61;100.00;98390.81;5053644;28;20240;-82
2022/08/15 00:26:56;;;;;;;9.97;8.97;;;;;;;17.57;100.00;98382.47;5050640;28;20230;-81
2022/08/15 00:29:25;;;;;;;10.80;9.80;;;;;;;17.52;100.00;98387.97;5053881;28;20721;-82
2022/08/15 00:32:08;;;;;;;10.57;9.60;;;;;;;17.47;100.00;98382.63;5024337;28;20238;-82
2022/08/15 00:34:55;;;;;;;9.87;9.07;;;;;;;17.44;100.00;98377.81;5025096;28;20723;-80
2022/08/15 00:37:22;;;;;;;10.33;9.50;;;;;;;17.42;100.00;98377.28;5027034;28;20223;-83
2022/08/15 00:39:49;;;;;;;10.33;9.43;;;;;;;17.36;100.00;98378.44;5025597;28;20233;-83
2022/08/15 00:42:23;;;;;;;12.00;9.47;;;;;;;17.34;100.00;98383.38;5007823;28;20233;-81
2022/08/15 00:44:56;;;;;;;10.87;9.90;;;;;;;17.30;100.00;98374.22;5028582;28;20224;-83
2022/08/15 00:47:40;;;;;;;11.03;9.93;;;;;;;17.26;100.00;98370.50;5025712;28;20233;-82
2022/08/15 00:50:10;;;;;;;10.60;9.80;;;;;;;17.23;100.00;98367.56;5022270;28;20230;-83
2022/08/15 00:52:59;;;;;;;10.30;9.33;;;;;;;17.18;100.00;98374.66;4996366;28;20294;-82
2022/08/15 00:55:27;;;;;;;10.90;9.80;;;;;;;17.14;100.00;98370.13;5022746;28;20259;-81
2022/08/15 00:57:57;;;;;;;10.40;9.50;;;;;;;17.08;100.00;98372.09;5010887;28;20665;-81
2022/08/15 01:00:42;;;;;;;10.60;9.70;;;;;;;17.07;100.00;98377.81;5037572;28;20620;-83
2022/08/15 01:03:21;;;;;;;10.37;9.53;;;;;;;17.06;100.00;98376.19;5041527;28;20751;-83
2022/08/15 01:05:55;;;;;;;10.60;9.70;;;;;;;17.06;100.00;98376.19;5031778;28;20856;-83
2022/08/15 01:08:27;;;;;;;11.40;10.40;;;;;;;17.00;100.00;98377.34;5041156;28;20253;-81
2022/08/15 01:11:26;;;;;;;11.03;10.13;;;;;;;16.98;100.00;98374.16;5041611;28;20240;-82
2022/08/15 01:14:01;;;;;;;11.70;10.53;;;;;;;16.92;100.00;98362.59;5047567;28;20323;-82
2022/08/15 01:16:48;;;;;;;11.10;10.13;;;;;;;16.87;100.00;98368.06;5031652;28;20723;-82
2022/08/15 01:19:29;;;;;;;11.13;10.27;;;;;;;16.86;100.00;98369.16;5046602;28;20241;-81
2022/08/15 01:22:20;;;;;;;10.70;9.80;;;;;;;16.83;100.00;98368.94;5042449;28;21697;-84
2022/08/15 01:25:16;;;;;;;10.87;9.87;;;;;;;16.78;100.00;98377.09;5048529;28;20242;-82
2022/08/15 01:28:08;;;;;;;10.77;9.87;;;;;;;16.71;100.00;98364.72;5049291;28;20230;-82
2022/08/15 01:30:49;;;;;;;11.40;10.40;;;;;;;16.68;100.00;98375.31;5047528;28;20254;-82
2022/08/15 01:33:32;;;;;;;11.03;9.93;;;;;;;16.65;100.00;98365.91;5045855;28;20305;-81
2022/08/15 01:35:59;;;;;;;10.87;9.97;;;;;;;16.60;100.00;98371.38;5032821;28;20234;-83
2022/08/15 01:38:33;;;;;;;10.93;10.03;;;;;;;16.57;100.00;98363.78;5046754;28;20229;-82
2022/08/15 01:41:41;;;;;;;11.00;10.10;;;;;;;16.55;100.00;98370.59;5043839;28;20238;-82
2022/08/15 01:44:30;;;;;;;10.83;9.93;;;;;;;16.50;100.00;98376.06;5012939;28;20241;-81
2022/08/15 01:47:09;;;;;;;11.20;10.20;;;;;;;16.44;100.00;98375.31;5040193;28;20245;-82
2022/08/15 01:49:45;;;;;;;11.13;10.23;;;;;;;16.43;100.00;98378.28;5043388;28;20352;-83
2022/08/15 01:52:32;;;;;;;11.07;10.07;;;;;;;16.43;100.00;98375.59;5033323;28;20238;-82
2022/08/15 01:55:26;;;;;;;10.53;9.70;;;;;;;16.44;100.00;98382.59;5023665;28;20236;-81
2022/08/15 01:58:01;;;;;;;11.30;10.13;;;;;;;16.41;100.00;98375.09;5022770;28;20280;-82
2022/08/15 02:00:28;;;;;;;10.70;9.80;;;;;;;16.42;100.00;98372.09;5033491;28;20695;-82
2022/08/15 02:02:55;;;;;;;11.20;10.30;;;;;;;16.41;100.00;98372.38;5052509;28;20692;-83
2022/08/15 02:05:25;;;;;;;10.63;9.73;;;;;;;16.44;100.00;98380.72;5032679;28;20245;-82
2022/08/15 02:07:57;;;;;;;10.70;9.80;;;;;;;16.46;100.00;98380.44;5041278;28;20225;-83
2022/08/15 02:10:43;;;;;;;11.50;10.50;;;;;;;16.44;100.00;98367.19;5043776;28;20287;-82
2022/08/15 02:13:16;;;;;;;11.20;10.20;;;;;;;16.45;100.00;98371.50;5034725;28;20222;-83
2022/08/15 02:15:50;;;;;;;11.27;10.37;;;;;;;16.46;100.00;98369.63;5018500;28;20256;-82
2022/08/15 02:18:17;;;;;;;11.27;10.37;;;;;;;16.44;100.00;98367.19;5033961;28;20254;-82
2022/08/15 02:20:48;;;;;;;11.23;10.33;;;;;;;16.43;100.00;98367.47;5067385;28;20229;-83
2022/08/15 02:23:17;;;;;;;11.10;10.10;;;;;;;16.43;100.00;98370.19;5051484;28;20283;-82
2022/08/15 02:25:47;;;;;;;11.63;10.43;;;;;;;16.38;100.00;98378.38;5055214;28;21142;-82
2022/08/15 02:28:15;;;;;;;11.70;10.70;;;;;;;16.37;100.00;98374.84;5056785;28;20237;-82
2022/08/15 02:31:15;;;;;;;11.37;10.47;;;;;;;16.35;100.00;98365.41;5048379;28;20774;-82
2022/08/15 02:33:50;;;;;;;11.43;10.33;;;;;;;16.29;100.00;98378.16;5054548;28;20229;-82
2022/08/15 02:36:18;;;;;;;12.07;10.87;;;;;;;16.23;100.00;98369.34;5051510;28;20312;-83
2022/08/15 02:39:04;;;;;;;10.90;9.93;;;;;;;16.20;100.00;98369.06;5057222;28;20237;-83
2022/08/15 02:41:34;;;;;;;11.23;10.33;;;;;;;16.17;100.00;98372.38;5052089;28;20608;-82
2022/08/15 02:44:12;;;;;;;11.47;10.40;;;;;;;16.13;100.00;98355.94;5036012;28;20242;-82
2022/08/15 02:46:58;;;;;;;11.53;10.53;;;;;;;16.12;100.00;98367.00;5029953;28;20260;-82
2022/08/15 02:49:34;;;;;;;11.53;10.47;;;;;;;16.11;100.00;98366.19;5012076;28;20225;-82
2022/08/15 02:52:19;;;;;;;11.47;10.57;;;;;;;16.06;100.00;98365.44;5033744;28;20241;-83
2022/08/15 02:54:52;;;;;;;11.53;10.50;;;;;;;16.04;100.00;98364.94;5039065;28;20234;-83
2022/08/15 02:57:24;;;;;;;11.40;10.50;;;;;;;16.01;100.00;98366.28;5060869;28;20234;-83
2022/08/15 02:59:52;;;;;;;12.57;11.37;;;;;;;16.01;100.00;98370.88;5034583;28;20775;-83
2022/08/15 03:02:26;;;;;;;11.77;10.77;;;;;;;15.96;100.00;98363.63;5017338;28;20234;-83
2022/08/15 03:05:00;;;;;;;12.20;11.20;;;;;;;15.97;100.00;98367.16;5034580;28;20645;-83
2022/08/15 03:07:28;;;;;;;11.73;10.83;;;;;;;15.95;100.00;98363.94;5022546;28;20265;-82
2022/08/15 03:09:55;;;;;;;12.73;11.53;;;;;;;15.89;100.00;98365.88;5037457;28;20700;-82
2022/08/15 03:12:28;;;;;;;12.43;11.27;;;;;;;15.88;100.00;98360.75;5015692;28;20280;-83
2022/08/15 03:15:00;;;;;;;12.40;11.40;;;;;;;15.85;100.00;98356.75;5028857;28;20220;-82
2022/08/15 03:17:29;;;;;;;12.57;11.37;;;;;;;15.81;100.00;98358.41;5000238;28;20693;-82
2022/08/15 03:20:04;;;;;;;12.00;10.90;;;;;;;15.79;100.00;98357.88;5031696;28;20284;-78
2022/08/15 03:22:44;;;;;;;12.70;11.60;;;;;;;15.76;100.00;98353.84;5027104;28;20240;-83
2022/08/15 03:25:15;;;;;;;12.23;11.17;;;;;;;15.73;100.00;98350.91;5010320;28;20234;-82
2022/08/15 03:27:44;;;;;;;12.10;10.97;;;;;;;15.75;100.00;98351.44;5015862;28;20250;-83
2022/08/15 03:30:13;;;;;;;12.03;10.93;;;;;;;15.68;100.00;98346.34;5032972;28;20230;-83
2022/08/15 03:32:51;;;;;;;12.03;11.03;;;;;;;15.69;100.00;98350.66;5031836;28;20324;-83
2022/08/15 03:35:23;;;;;;;12.60;11.50;;;;;;;15.66;100.00;98355.81;5021946;28;20238;-83
2022/08/15 03:37:59;;;;;;;11.77;10.73;;;;;;;15.62;100.00;98352.91;5009751;28;20316;-83
2022/08/15 03:40:35;;;;;;;12.33;11.10;;;;;;;15.59;100.00;98355.34;5066323;28;20718;-82
2022/08/15 03:43:05;;;;;;;11.83;10.83;;;;;;;15.57;100.00;98360.22;5034540;28;20309;-83
2022/08/15 03:45:46;;;;;;;11.87;10.87;;;;;;;15.56;100.00;98366.72;5020723;28;20269;-82
2022/08/15 03:48:22;;;;;;;12.33;11.23;;;;;;;15.53;100.00;98354.59;5036068;28;20235;-83
2022/08/15 03:50:54;;;;;;;12.77;11.57;;;;;;;15.54;100.00;98360.81;5037592;28;20222;-82
2022/08/15 03:53:30;;;;;;;12.37;11.17;;;;;;;15.52;100.00;98360.25;5042077;28;20245;-82
2022/08/15 03:55:58;;;;;;;12.20;10.90;;;;;;;15.53;100.00;98354.59;5029000;28;20252;-82
2022/08/15 03:58:31;;;;;;;11.77;10.77;;;;;;;15.55;100.00;98352.41;5011105;28;20241;-82
2022/08/15 04:01:11;;;;;;;12.80;11.53;;;;;;;15.57;100.00;98349.44;5032613;28;20282;-82
2022/08/15 04:03:41;;;;;;;12.20;11.10;;;;;;;15.59;100.00;98347.22;5038046;28;20229;-82
2022/08/15 04:06:11;;;;;;;12.20;11.00;;;;;;;15.60;100.00;98340.75;5037288;28;20760;-83
2022/08/15 04:08:47;;;;;;;13.13;11.83;;;;;;;15.67;100.00;98342.06;5024393;28;20225;-82
2022/08/15 04:11:31;;;;;;;12.07;11.03;;;;;;;15.67;100.00;98338.56;5012129;28;20260;-83
2022/08/15 04:14:06;;;;;;;12.37;11.27;;;;;;;15.73;100.00;98340.09;5042712;28;20238;-83
2022/08/15 04:16:57;;;;;;;12.00;11.00;;;;;;;15.78;100.00;98348.97;5021304;28;20238;-82
2022/08/15 04:19:32;;;;;;;11.93;10.93;;;;;;;15.84;100.00;98349.72;5024124;28;20241;-83
2022/08/15 04:22:26;;;;;;;11.53;10.50;;;;;;;15.90;100.00;98353.19;5022615;28;20235;-83
2022/08/15 04:25:27;;;;;;;12.27;11.20;;;;;;;16.01;100.00;98355.50;5014985;28;20257;-84
2022/08/15 04:28:15;;;;;;;11.80;10.80;;;;;;;16.12;100.00;98345.41;5023672;28;20303;-83
2022/08/15 04:31:06;;;;;;;11.63;10.63;;;;;;;16.18;100.00;98344.25;5038270;28;20304;-83
2022/08/15 04:33:34;;;;;;;11.83;10.83;;;;;;;16.26;100.00;98346.31;5024062;28;20227;-82
2022/08/15 04:36:23;;;;;;;12.07;11.07;;;;;;;16.37;100.00;98352.44;5050969;28;20225;-82
2022/08/15 04:38:57;;;;;;;11.37;10.43;;;;;;;16.48;100.00;98352.00;5046773;28;20675;-83
2022/08/15 04:41:30;;;;;;;12.30;11.20;;;;;;;16.69;100.00;98358.81;5040702;28;20254;-83
2022/08/15 04:44:05;;;;;;;11.90;10.90;;;;;;;16.89;100.00;98359.66;5022245;28;20276;-82
2022/08/15 04:46:32;;;;;;;11.53;10.63;;;;;;;17.02;100.00;98354.31;5018986;28;20227;-82
2022/08/15 04:48:59;;;;;;;11.67;10.77;;;;;;;17.24;100.00;98353.72;5026378;28;20257;-80
2022/08/15 04:51:27;;;;;;;10.73;9.83;;;;;;;17.44;100.00;98361.56;5019835;28;20235;-83
2022/08/15 04:54:06;;;;;;;11.53;10.53;;;;;;;17.63;100.00;98360.75;5025000;28;20283;-82
2022/08/15 04:56:37;;;;;;;11.10;10.17;;;;;;;17.81;100.00;98362.63;5008150;28;20238;-83
2022/08/15 04:59:19;;;;;;;10.80;9.90;;;;;;;17.93;100.00;98366.44;5024294;28;20320;-83
2022/08/15 05:02:24;;;;;;;10.40;9.50;;;;;;;18.01;100.00;98360.34;5038821;28;20238;-84
2022/08/15 05:05:11;;;;;;;10.60;9.70;;;;;;;18.12;100.00;98369.09;5021150;28;20772;-82
2022/08/15 05:07:38;;;;;;;10.17;9.37;;;;;;;18.21;100.00;98364.59;5038712;28;20236;-84
2022/08/15 05:10:26;;;;;;;10.33;9.47;;;;;;;18.35;100.00;98376.25;5024957;28;20230;-83
2022/08/15 05:13:08;;;;;;;10.03;9.23;;;;;;;18.46;100.00;98363.31;5025372;28;20238;-81
2022/08/15 05:15:38;;;;;;;9.57;8.77;;;;;;;18.49;100.00;98376.25;5025268;28;20227;-83
2022/08/15 05:18:23;;;;;;;10.63;9.73;;;;;;;18.46;100.00;98371.44;5009275;28;20233;-83
2022/08/15 05:20:50;;;;;;;9.90;9.10;;;;;;;18.50;100.00;98377.88;5025773;28;20233;-82
2022/08/15 05:23:20;;;;;;;10.23;9.33;;;;;;;18.55;100.00;98380.53;5026423;28;20232;-83
2022/08/15 05:26:12;;;;;;;11.20;10.20;;;;;;;18.70;100.00;98377.50;5028011;28;20778;-84
2022/08/15 05:28:59;;;;;;;10.63;9.70;;;;;;;19.08;100.00;98371.81;5031290;28;20311;-83
2022/08/15 05:31:29;;;;;;;10.37;9.47;;;;;;;19.40;100.00;98366.19;5028899;28;20264;-83
2022/08/15 05:34:04;;;;;;;9.87;9.17;;;;;;;19.50;100.00;98376.88;5019889;28;20244;-82
2022/08/15 05:36:39;;;;;;;10.57;9.67;;;;;;;19.95;100.00;98376.84;5021140;28;20240;-82
2022/08/15 05:39:18;;;;;;;10.23;9.33;;;;;;;20.46;100.00;98382.56;5023640;28;20221;-83
2022/08/15 05:41:56;;;;;;;10.27;9.37;;;;;;;20.73;100.00;98383.47;5026617;28;20232;-85
2022/08/15 05:44:37;;;;;;;9.87;9.07;;;;;;;20.99;100.00;98376.97;5026690;28;20237;-84
2022/08/15 05:47:43;;;;;;;10.37;9.37;;;;;;;21.28;100.00;98381.84;5014563;28;20725;-84
2022/08/15 05:50:32;;;;;;;10.20;9.30;;;;;;;21.47;100.00;98387.78;5011537;28;20292;-84
2022/08/15 05:53:29;;;;;;;10.20;9.30;;;;;;;21.55;100.00;98383.47;5046437;28;20229;-84
2022/08/15 05:56:17;;;;;;;9.97;9.17;;;;;;;21.68;100.00;98381.69;5012432;28;20244;-85
2022/08/15 05:58:56;;;;;;;9.67;8.87;;;;;;;21.61;100.00;98384.88;5017348;28;20230;-84
2022/08/15 06:01:29;;;;;;;10.03;9.23;;;;;;;21.53;100.00;98380.25;5028492;28;20226;-84
2022/08/15 06:04:09;;;;;;;10.33;9.50;;;;;;;21.42;100.00;98381.69;5026493;28;20255;-84
2022/08/15 06:06:59;;;;;;;10.10;9.20;;;;;;;21.20;100.00;98377.19;5035646;28;20224;-84
2022/08/15 06:09:43;;;;;;;10.07;9.27;;;;;;;21.14;100.00;98375.72;5031230;28;20262;-84
2022/08/15 06:12:33;;;;;;;10.37;9.47;;;;;;;20.99;100.00;98374.25;5049622;28;20240;-84
2022/08/15 06:15:12;;;;;;;10.20;9.40;;;;;;;20.93;100.00;98374.72;5037100;28;20239;-85
2022/08/15 06:17:50;;;;;;;10.30;9.40;;;;;;;20.90;100.00;98389.75;5031693;28;20234;-85
2022/08/15 06:20:45;;;;;;;10.05;9.25;;;;;;;20.98;100.00;98393.63;5053068;28;20233;-84
2022/08/15 06:24:15;;;;;;;10.50;9.70;;;;;;;21.10;100.00;98391.88;5033066;28;20667;-84
2022/08/15 06:27:10;;;;;;;10.65;9.70;;;;;;;21.42;100.00;98389.84;5047324;28;20222;-85
2022/08/15 06:29:45;;;;;;;10.63;9.82;;;;;;;21.65;100.00;98394.00;5051181;28;20649;-85
2022/08/15 06:32:21;;;;;;;10.63;9.73;;;;;;;21.81;100.00;98388.88;5049535;28;20723;-85
2022/08/15 06:35:05;;;;;;;11.82;10.82;;;;;;;21.93;100.00;98386.31;5050239;28;20221;-84
2022/08/15 06:38:08;;;;;;;11.48;10.57;;;;;;;22.00;100.00;98388.56;5030366;28;20228;-84
2022/08/15 06:41:00;;;;;;;12.05;11.07;;;;;;;22.13;100.00;98396.56;5027867;28;20237;-84
2022/08/15 06:43:29;;;;;;;11.93;10.93;;;;;;;22.31;100.00;98395.38;5040469;28;20259;-84
2022/08/15 06:46:14;;;;;;;11.15;10.27;;;;;;;22.45;100.00;98402.56;5035069;28;20225;-84
2022/08/15 06:49:06;;;;;;;13.80;12.60;;;;;;;22.46;100.00;98404.97;5050642;28;20265;-84
2022/08/15 06:51:41;;;;;;;13.30;12.10;;;;;;;22.48;100.00;98401.91;5048910;28;20255;-84
2022/08/15 06:54:20;;;;;;;12.25;11.20;;;;;;;22.73;100.00;98403.75;5050163;28;20225;-84
2022/08/15 06:57:43;;;;;;;12.40;11.30;;;;;;;22.79;100.00;98411.44;5052706;28;20707;-85
2022/08/15 07:00:25;;;;;;;12.68;11.57;;;;;;;23.03;100.00;98412.75;5044488;28;20267;-83
2022/08/15 07:04:00;;;;;;;12.32;11.32;;;;;;;23.02;100.00;98409.22;5031497;28;20225;-84
2022/08/15 07:06:39;;;;;;;11.70;10.70;;;;;;;23.16;100.00;98417.97;5029034;28;20225;-84
2022/08/15 07:09:50;;;;;;;11.18;10.18;;;;;;;23.34;100.00;98410.47;5054781;28;20329;-83
2022/08/15 07:12:42;;;;;;;11.55;10.65;;;;;;;23.50;100.00;98413.44;5024207;28;20234;-84
2022/08/15 07:15:29;;;;;;;11.63;10.63;;;;;;;23.62;100.00;98414.31;5035967;28;20260;-84
2022/08/15 07:18:06;;;;;;;12.52;11.32;;;;;;;23.76;100.00;98416.75;5026317;28;20321;-83
2022/08/15 07:20:33;;;;;;;11.40;10.40;;;;;;;23.91;100.00;98415.34;5047487;28;20226;-83
2022/08/15 07:23:24;;;;;;;12.98;11.50;;;;;;;23.87;99.90;98411.69;5016316;28;20264;-84
2022/08/15 07:26:00;;;;;;;11.25;10.25;;;;;;;23.82;100.00;98409.16;5045597;28;20230;-83
2022/08/15 07:28:34;;;;;;;10.48;9.52;;;;;;;23.89;100.00;98418.41;5036287;28;20236;-84
2022/08/15 07:31:19;;;;;;;11.52;10.50;;;;;;;23.75;100.00;98414.38;5039637;28;20241;-84
2022/08/15 07:33:56;;;;;;;11.00;10.13;;;;;;;23.82;100.00;98409.16;5026036;28;20273;-83
2022/08/15 07:36:31;;;;;;;10.73;9.82;;;;;;;23.88;99.27;98410.56;5056303;28;20272;-84
2022/08/15 07:39:29;;;;;;;11.48;10.48;;;;;;;23.86;98.77;98416.34;5034216;28;20240;-85
2022/08/15 07:42:13;;;;;;;10.77;9.98;;;;;;;23.86;100.00;98408.16;5023391;28;20235;-82
2022/08/15 07:45:00;;;;;;;11.07;10.18;;;;;;;24.04;95.83;98406.84;5031101;28;20237;-84
2022/08/15 07:47:32;;;;;;;10.50;9.70;;;;;;;24.13;95.97;98410.28;5035276;28;20258;-84
2022/08/15 07:50:32;;;;;;;10.98;10.13;;;;;;;24.22;92.86;98406.69;5028960;28;20262;-82
2022/08/15 07:53:13;;;;;;;9.90;9.00;;;;;;;24.41;87.79;98420.63;5027965;28;20237;-83
2022/08/15 07:56:14;;;;;;;10.13;9.15;;;;;;;24.57;85.92;98416.13;5026777;28;20268;-81
2022/08/15 07:59:33;;;;;;;9.77;8.98;;;;;;;24.67;89.17;98428.56;5026175;28;20693;-83
2022/08/15 08:03:05;;;;;;;10.05;9.15;;;;;;;24.89;89.61;98434.44;5033270;28;20322;-84
2022/08/15 08:05:54;;;;;;;9.80;9.00;;;;;;;24.99;87.93;98433.19;5033796;28;20264;-81
2022/08/15 08:08:26;;;;;;;10.73;9.63;;;;;;;25.19;86.40;98428.72;5020402;28;20238;-83
2022/08/15 08:11:24;;;;;;;10.45;9.65;;;;;;;25.18;85.18;98425.19;5014508;28;20280;-83
2022/08/15 08:14:01;;;;;;;10.35;9.35;;;;;;;25.24;83.08;98428.50;5017478;28;20888;-83
2022/08/15 08:16:51;;;;;;;10.32;9.52;;;;;;;25.37;82.43;98435.53;5020589;28;20224;-83
2022/08/15 08:19:38;;;;;;;9.32;8.63;;;;;;;25.53;79.79;98435.59;5015418;28;20316;-84
2022/08/15 08:22:15;;;;;;;10.05;9.25;;;;;;;25.63;79.99;98430.47;5024201;28;20341;-83
2022/08/15 08:25:01;;;;;;;9.00;8.30;;;;;;;25.84;75.58;98442.09;5032083;28;20249;-84
2022/08/15 08:28:00;;;;;;;9.30;8.60;;;;;;;26.07;72.42;98442.34;5014283;28;20772;-83
2022/08/15 08:30:44;;;;;;;9.80;9.00;;;;;;;25.88;71.84;98444.13;5045838;28;20225;-83
2022/08/15 08:33:10;;;;;;;9.30;8.50;;;;;;;25.91;71.50;98437.94;5038800;28;20237;-83
2022/08/15 08:35:47;;;;;;;9.35;8.52;;;;;;;25.99;72.25;98442.50;5066535;28;20278;-83
2022/08/15 08:38:43;;;;;;;9.18;8.27;;;;;;;25.80;72.62;98438.41;5043868;28;20274;-83
2022/08/15 08:41:45;;;;;;;9.27;8.35;;;;;;;25.75;74.33;98429.66;5045913;28;20327;-82
2022/08/15 08:44:30;;;;;;;9.25;8.32;;;;;;;25.86;74.64;98439.78;5050912;28;20248;-83
2022/08/15 08:47:10;;;;;;;8.75;8.05;;;;;;;25.99;75.07;98437.78;5052626;28;20236;-82
2022/08/15 08:50:10;;;;;;;9.65;8.85;;;;;;;26.09;75.49;98434.53;5034105;28;20238;-83
2022/08/15 08:53:06;;;;;;;9.23;8.43;;;;;;;26.31;73.79;98430.47;5011955;28;20317;-82
2022/08/15 08:55:51;;;;;;;11.55;8.50;;;;;;;26.55;71.15;98435.00;5029482;28;20933;-83
2022/08/15 08:58:26;;;;;;;10.00;9.13;;;;;;;26.31;71.55;98438.69;5039535;28;20707;-83
2022/08/15 09:01:13;;;;;;;9.52;8.70;;;;;;;26.43;71.32;98432.31;5037802;28;20232;-83
2022/08/15 09:04:03;;;;;;;10.05;9.18;;;;;;;26.50;69.75;98436.03;5035498;28;20226;-83
2022/08/15 09:06:36;;;;;;;9.00;8.30;;;;;;;26.84;66.61;98439.25;5038914;28;20230;-84
2022/08/15 09:09:10;;;;;;;9.77;8.82;;;;;;;26.97;65.22;98435.31;5038383;28;20280;-84
2022/08/15 09:11:45;;;;;;;9.07;8.30;;;;;;;27.17;65.71;98437.75;5037779;28;20230;-83
2022/08/15 09:14:17;;;;;;;9.02;8.27;;;;;;;27.23;64.40;98427.28;5041962;28;20240;-83
2022/08/15 09:17:06;;;;;;;9.85;8.60;;;;;;;27.66;61.29;98423.56;5044310;28;20234;-83
2022/08/15 09:20:24;;;;;;;9.18;8.32;;;;;;;27.94;58.48;98426.88;5035451;28;20225;-83
2022/08/15 09:23:05;;;;;;;9.32;8.63;;;;;;;28.25;58.06;98430.63;5043222;28;20235;-83
2022/08/15 09:25:41;;;;;;;8.65;7.95;;;;;;;28.48;56.34;98416.88;5007821;28;20226;-84
2022/08/15 09:28:41;;;;;;;9.00;8.20;;;;;;;28.72;53.96;98419.31;5015914;28;20268;-83
2022/08/15 09:31:12;;;;;;;9.25;8.55;;;;;;;28.99;53.37;98415.41;5022515;28;20241;-82
2022/08/15 09:34:05;;;;;;;8.57;7.97;;;;;;;29.21;51.60;98408.25;5028464;28;20214;-83
2022/08/15 09:36:40;;;;;;;8.95;8.05;;;;;;;29.34;50.73;98420.72;5042782;28;20292;-83
2022/08/15 09:39:34;;;;;;;7.97;7.25;;;;;;;29.40;51.50;98416.44;5027755;28;20360;-82
2022/08/15 09:42:29;;;;;;;8.30;7.72;;;;;;;29.13;51.93;98407.38;5035928;28;20234;-83
2022/08/15 09:45:32;;;;;;;8.50;7.80;;;;;;;29.26;52.89;98410.69;5045433;28;20779;-83
2022/08/15 09:48:20;;;;;;;9.13;8.25;;;;;;;29.34;51.41;98390.38;5034667;28;20221;-83
2022/08/15 09:51:12;;;;;;;8.30;7.60;;;;;;;29.23;51.33;98394.91;5027476;28;20322;-83
2022/08/15 09:53:58;;;;;;;8.13;7.53;;;;;;;29.25;50.06;98389.81;5029901;28;20245;-82
2022/08/15 09:56:31;;;;;;;8.23;7.53;;;;;;;29.13;50.89;98388.06;5027486;28;20257;-82
2022/08/15 09:59:33;;;;;;;7.93;7.15;;;;;;;29.14;51.64;98381.38;5018445;28;20229;-83
2022/08/15 10:02:16;;;;;;;7.85;7.20;;;;;;;29.07;51.66;98374.97;5015454;28;20227;-82
2022/08/15 10:05:04;;;;;;;7.63;7.03;;;;;;;29.12;52.04;98380.94;5026684;28;20230;-82
2022/08/15 10:08:05;;;;;;;7.70;7.18;;;;;;;29.42;51.00;98369.19;5040560;28;20229;-83
2022/08/15 10:10:32;;;;;;;7.55;7.05;;;;;;;29.75;47.63;98366.44;5025543;28;20237;-83
2022/08/15 10:13:08;;;;;;;7.57;6.97;;;;;;;29.98;47.10;98361.63;5048211;28;20229;-83
2022/08/15 10:15:41;;;;;;;7.45;6.95;;;;;;;30.04;47.80;98354.59;5049186;28;20260;-83
2022/08/15 10:18:10;;;;;;;7.35;6.78;;;;;;;30.29;45.95;98343.75;5051579;28;20236;-83
2022/08/15 10:20:40;;;;;;;7.55;6.95;;;;;;;30.06;45.92;98352.22;5052196;28;20221;-83
2022/08/15 10:23:10;;;;;;;7.85;7.25;;;;;;;30.03;47.27;98350.22;5055807;28;20285;-83
2022/08/15 10:25:37;;;;;;;7.45;6.85;;;;;;;30.38;45.50;98344.22;5034450;28;20238;-83
2022/08/15 10:28:19;;;;;;;7.40;6.90;;;;;;;30.38;46.37;98340.69;5032711;28;20226;-83
2022/08/15 10:31:05;;;;;;;7.32;6.72;;;;;;;30.37;45.67;98344.63;5027558;28;20705;-82
2022/08/15 10:33:36;;;;;;;7.55;6.95;;;;;;;30.45;46.14;98338.81;5033657;28;20601;-84
2022/08/15 10:36:10;;;;;;;7.03;6.55;;;;;;;30.59;43.24;98335.38;5035419;28;20236;-83
2022/08/15 10:39:24;;;;;;;6.85;6.35;;;;;;;31.08;42.16;98331.41;5024286;28;20262;-83
2022/08/15 10:42:11;;;;;;;6.55;6.13;;;;;;;31.58;40.64;98333.25;5018572;28;20303;-83
2022/08/15 10:45:11;;;;;;;6.05;5.63;;;;;;;31.97;39.56;98332.56;5044352;28;20237;-83
2022/08/15 10:47:47;;;;;;;6.70;6.20;;;;;;;31.24;39.42;98324.38;5041471;28;20234;-83
2022/08/15 10:50:45;;;;;;;6.60;6.00;;;;;;;30.80;41.21;98329.19;5045731;28;20233;-82
2022/08/15 10:53:48;;;;;;;6.68;5.82;;;;;;;30.76;40.70;98331.13;5046277;28;20242;-83
2022/08/15 10:56:26;;;;;;;6.05;5.55;;;;;;;31.30;39.76;98327.56;5046087;28;20233;-84
2022/08/15 10:59:18;;;;;;;6.32;5.80;;;;;;;31.90;38.17;98327.81;5046670;28;20257;-83
2022/08/15 11:01:45;;;;;;;6.10;5.60;;;;;;;32.19;37.65;98331.47;5043710;28;20283;-84
2022/08/15 11:04:27;;;;;;;6.40;5.90;;;;;;;32.25;37.59;98329.84;5045715;28;20242;-83
2022/08/15 11:07:17;;;;;;;6.18;5.68;;;;;;;32.34;36.48;98330.25;5045124;28;20238;-83
2022/08/15 11:09:59;;;;;;;6.05;5.63;;;;;;;32.50;37.57;98327.13;5040389;28;20230;-83
2022/08/15 11:12:33;;;;;;;5.80;5.40;;;;;;;32.31;38.23;98322.75;5050910;28;20233;-84
2022/08/15 11:15:22;;;;;;;6.10;5.70;;;;;;;32.11;38.38;98321.53;5027542;28;20229;-83
2022/08/15 11:18:00;;;;;;;6.82;6.30;;;;;;;31.95;38.56;98321.09;5031561;28;20225;-83
2022/08/15 11:20:52;;;;;;;6.47;5.90;;;;;;;31.39;40.33;98311.41;5052729;28;20236;-82
2022/08/15 11:23:39;;;;;;;6.68;6.18;;;;;;;31.26;41.19;98318.47;5034611;28;20226;-83
2022/08/15 11:26:11;;;;;;;6.68;6.07;;;;;;;31.09;39.86;98317.16;5015671;28;20226;-83
2022/08/15 11:29:15;;;;;;;6.38;5.90;;;;;;;30.93;40.16;98309.16;5029090;28;20296;-83
2022/08/15 11:31:49;;;;;;;6.45;5.97;;;;;;;31.18;40.55;98308.50;5028544;28;20230;-84
2022/08/15 11:34:36;;;;;;;6.07;5.57;;;;;;;31.59;39.86;98306.38;5024459;28;20645;-84
2022/08/15 11:37:09;;;;;;;5.55;5.15;;;;;;;31.87;37.21;98318.28;5026218;28;20227;-81
2022/08/15 11:39:50;;;;;;;5.90;5.40;;;;;;;32.61;37.37;98323.16;5028311;28;20229;-83
2022/08/15 11:42:18;;;;;;;5.93;5.43;;;;;;;32.81;36.48;98314.44;5046281;28;20238;-83
2022/08/15 11:44:53;;;;;;;6.40;5.90;;;;;;;32.70;36.71;98312.50;5026021;28;20364;-83
2022/08/15 11:47:27;;;;;;;6.47;5.70;;;;;;;33.05;35.74;98308.03;5028925;28;20296;-83
2022/08/15 11:50:00;;;;;;;6.20;5.70;;;;;;;33.48;35.75;98297.63;5055848;28;20229;-83
2022/08/15 11:52:34;;;;;;;6.20;5.70;;;;;;;33.80;34.34;98300.25;5045265;28;20230;-82
2022/08/15 11:55:20;;;;;;;6.00;5.50;;;;;;;33.48;35.30;98295.63;5028952;28;20590;-83
2022/08/15 11:58:21;;;;;;;6.30;5.80;;;;;;;33.56;36.07;98293.59;5049575;28;20233;-83
2022/08/15 12:00:57;;;;;;;6.10;5.70;;;;;;;33.32;35.60;98292.53;5026178;28;20257;-84
2022/08/15 12:03:27;;;;;;;6.00;5.50;;;;;;;33.50;34.74;98295.25;5028622;28;20237;-83
2022/08/15 12:06:14;;;;;;;5.55;5.15;;;;;;;33.82;33.87;98289.53;5044286;28;20241;-82
2022/08/15 12:09:14;;;;;;;5.88;5.47;;;;;;;33.37;34.97;98286.56;5049104;28;20245;-83
2022/08/15 12:11:46;;;;;;;6.13;5.70;;;;;;;33.48;34.23;98283.75;5047200;28;20233;-82
2022/08/15 12:14:24;;;;;;;6.28;5.78;;;;;;;33.95;34.48;98288.66;5044285;28;20236;-83
2022/08/15 12:17:05;;;;;;;5.80;5.40;;;;;;;34.05;34.20;98278.66;5046864;28;20264;-83
2022/08/15 12:19:47;;;;;;;6.28;5.78;;;;;;;33.58;34.35;98283.69;5030282;28;20229;-84
2022/08/15 12:22:37;;;;;;;6.00;5.60;;;;;;;33.50;34.11;98282.13;5018820;28;20226;-84
2022/08/15 12:25:20;;;;;;;5.97;5.57;;;;;;;34.21;32.68;98294.84;5031521;28;20241;-82